sensor_id;sensor_type;location;lat;lon;timestamp;P1;durP1;ratioP1;P2;durP2;ratioP2
38238;SDS011;24035;48.900;9.188;2023-02-28T00:02:18;3.85;;;1.15;;
38238;SDS011;24035;48.900;9.188;2023-02-28T00:04:44;4.57;;;0.90;;
38238;SDS011;24035;48.900;9.188;2023-02-28T00:07:09;3.38;;;1.20;;
38238;SDS011;24035;48.900;9.188;2023-02-28T00:09:35;3.53;;;1.23;;
38238;SDS011;24035;48.900;9.188;2023-02-28T00:12:00;3.50;;;1.00;;
38238;SDS011;24035;48.900;9.188;2023-02-28T00:14:38;3.15;;;0.98;;
38238;SDS011;24035;48.900;9.188;2023-02-28T00:17:04;3.13;;;1.33;;
38238;SDS011;24035;48.900;9.188;2023-02-28T00:19:29;2.80;;;1.17;;
38238;SDS011;24035;48.900;9.188;2023-02-28T00:21:55;3.13;;;0.90;;
38238;SDS011;24035;48.900;9.188;2023-02-28T00:24:21;4.15;;;1.35;;
38238;SDS011;24035;48.900;9.188;2023-02-28T00:26:46;3.97;;;1.55;;
38238;SDS011;24035;48.900;9.188;2023-02-28T00:29:12;5.43;;;1.20;;
38238;SDS011;24035;48.900;9.188;2023-02-28T00:31:37;3.70;;;1.23;;
38238;SDS011;24035;48.900;9.188;2023-02-28T00:34:03;4.97;;;1.73;;
38238;SDS011;24035;48.900;9.188;2023-02-28T00:36:29;3.08;;;1.20;;
38238;SDS011;24035;48.900;9.188;2023-02-28T00:38:54;6.10;;;1.10;;
38238;SDS011;24035;48.900;9.188;2023-02-28T00:41:20;2.47;;;0.95;;
38238;SDS011;24035;48.900;9.188;2023-02-28T00:43:46;5.60;;;1.20;;
38238;SDS011;24035;48.900;9.188;2023-02-28T00:46:11;3.65;;;0.90;;
38238;SDS011;24035;48.900;9.188;2023-02-28T00:48:37;1.83;;;0.70;;
38238;SDS011;24035;48.900;9.188;2023-02-28T00:51:03;2.90;;;1.05;;
38238;SDS011;24035;48.900;9.188;2023-02-28T00:53:29;4.05;;;1.23;;
38238;SDS011;24035;48.900;9.188;2023-02-28T00:55:55;2.47;;;1.02;;
38238;SDS011;24035;48.900;9.188;2023-02-28T00:58:20;2.78;;;1.17;;
38238;SDS011;24035;48.900;9.188;2023-02-28T01:00:46;5.03;;;1.40;;
38238;SDS011;24035;48.900;9.188;2023-02-28T01:03:14;3.90;;;1.35;;
38238;SDS011;24035;48.900;9.188;2023-02-28T01:05:41;4.15;;;1.55;;
38238;SDS011;24035;48.900;9.188;2023-02-28T01:08:06;4.68;;;1.58;;
38238;SDS011;24035;48.900;9.188;2023-02-28T01:10:32;5.20;;;1.30;;
38238;SDS011;24035;48.900;9.188;2023-02-28T01:12:58;2.90;;;0.93;;
38238;SDS011;24035;48.900;9.188;2023-02-28T01:15:24;3.47;;;1.33;;
38238;SDS011;24035;48.900;9.188;2023-02-28T01:17:50;3.58;;;1.15;;
38238;SDS011;24035;48.900;9.188;2023-02-28T01:20:15;3.60;;;1.60;;
38238;SDS011;24035;48.900;9.188;2023-02-28T01:22:41;3.22;;;1.20;;
38238;SDS011;24035;48.900;9.188;2023-02-28T01:25:07;3.90;;;1.52;;
38238;SDS011;24035;48.900;9.188;2023-02-28T01:27:33;2.95;;;1.25;;
38238;SDS011;24035;48.900;9.188;2023-02-28T01:29:58;3.45;;;1.20;;
38238;SDS011;24035;48.900;9.188;2023-02-28T01:32:24;3.03;;;1.05;;
38238;SDS011;24035;48.900;9.188;2023-02-28T01:34:50;3.15;;;1.27;;
38238;SDS011;24035;48.900;9.188;2023-02-28T01:37:15;3.55;;;1.33;;
38238;SDS011;24035;48.900;9.188;2023-02-28T01:39:41;3.92;;;1.08;;
38238;SDS011;24035;48.900;9.188;2023-02-28T01:42:08;3.75;;;1.10;;
38238;SDS011;24035;48.900;9.188;2023-02-28T01:44:55;5.43;;;1.38;;
38238;SDS011;24035;48.900;9.188;2023-02-28T01:47:38;5.32;;;1.52;;
38238;SDS011;24035;48.900;9.188;2023-02-28T01:50:07;3.22;;;1.48;;
38238;SDS011;24035;48.900;9.188;2023-02-28T01:52:39;3.55;;;1.23;;
38238;SDS011;24035;48.900;9.188;2023-02-28T01:55:07;3.03;;;1.33;;
38238;SDS011;24035;48.900;9.188;2023-02-28T01:57:37;2.95;;;1.30;;
38238;SDS011;24035;48.900;9.188;2023-02-28T02:00:10;4.80;;;1.77;;
38238;SDS011;24035;48.900;9.188;2023-02-28T02:02:40;7.05;;;1.65;;
38238;SDS011;24035;48.900;9.188;2023-02-28T02:05:09;3.72;;;1.40;;
38238;SDS011;24035;48.900;9.188;2023-02-28T02:07:39;3.70;;;1.63;;
38238;SDS011;24035;48.900;9.188;2023-02-28T02:10:12;5.28;;;1.88;;
38238;SDS011;24035;48.900;9.188;2023-02-28T02:37:35;3.75;;;1.60;;
38238;SDS011;24035;48.900;9.188;2023-02-28T02:45:26;4.85;;;1.20;;
38238;SDS011;24035;48.900;9.188;2023-02-28T02:47:53;4.50;;;1.35;;
38238;SDS011;24035;48.900;9.188;2023-02-28T02:50:26;4.43;;;1.27;;
38238;SDS011;24035;48.900;9.188;2023-02-28T02:53:01;3.83;;;1.30;;
38238;SDS011;24035;48.900;9.188;2023-02-28T02:55:29;3.90;;;1.38;;
38238;SDS011;24035;48.900;9.188;2023-02-28T02:57:58;3.35;;;1.33;;
38238;SDS011;24035;48.900;9.188;2023-02-28T03:00:32;4.18;;;1.55;;
38238;SDS011;24035;48.900;9.188;2023-02-28T03:03:02;3.03;;;1.33;;
38238;SDS011;24035;48.900;9.188;2023-02-28T03:05:32;3.53;;;1.13;;
38238;SDS011;24035;48.900;9.188;2023-02-28T03:08:13;5.63;;;1.60;;
38238;SDS011;24035;48.900;9.188;2023-02-28T03:10:43;3.28;;;1.30;;
38238;SDS011;24035;48.900;9.188;2023-02-28T03:13:18;3.75;;;1.48;;
38238;SDS011;24035;48.900;9.188;2023-02-28T03:18:54;4.50;;;1.60;;
38238;SDS011;24035;48.900;9.188;2023-02-28T03:24:45;4.17;;;1.63;;
38238;SDS011;24035;48.900;9.188;2023-02-28T03:30:01;4.10;;;1.33;;
38238;SDS011;24035;48.900;9.188;2023-02-28T03:32:51;4.65;;;1.75;;
38238;SDS011;24035;48.900;9.188;2023-02-28T03:35:22;4.60;;;1.30;;
38238;SDS011;24035;48.900;9.188;2023-02-28T03:37:56;5.30;;;1.52;;
38238;SDS011;24035;48.900;9.188;2023-02-28T03:40:31;6.90;;;2.22;;
38238;SDS011;24035;48.900;9.188;2023-02-28T03:43:03;5.05;;;1.60;;
38238;SDS011;24035;48.900;9.188;2023-02-28T03:45:33;4.95;;;1.42;;
38238;SDS011;24035;48.900;9.188;2023-02-28T03:48:05;3.50;;;1.40;;
38238;SDS011;24035;48.900;9.188;2023-02-28T03:50:49;5.00;;;1.73;;
38238;SDS011;24035;48.900;9.188;2023-02-28T03:53:30;4.57;;;1.60;;
38238;SDS011;24035;48.900;9.188;2023-02-28T03:56:01;6.63;;;2.15;;
38238;SDS011;24035;48.900;9.188;2023-02-28T03:58:41;6.00;;;2.10;;
38238;SDS011;24035;48.900;9.188;2023-02-28T04:01:39;4.32;;;1.90;;
38238;SDS011;24035;48.900;9.188;2023-02-28T04:04:11;5.38;;;1.67;;
38238;SDS011;24035;48.900;9.188;2023-02-28T04:06:38;3.13;;;1.48;;
38238;SDS011;24035;48.900;9.188;2023-02-28T04:09:05;4.13;;;1.73;;
38238;SDS011;24035;48.900;9.188;2023-02-28T04:14:04;3.40;;;1.48;;
38238;SDS011;24035;48.900;9.188;2023-02-28T04:16:32;4.82;;;2.00;;
38238;SDS011;24035;48.900;9.188;2023-02-28T04:18:58;6.13;;;1.90;;
38238;SDS011;24035;48.900;9.188;2023-02-28T04:21:31;3.85;;;1.50;;
38238;SDS011;24035;48.900;9.188;2023-02-28T04:23:58;4.00;;;1.67;;
38238;SDS011;24035;48.900;9.188;2023-02-28T04:26:35;5.32;;;1.60;;
38238;SDS011;24035;48.900;9.188;2023-02-28T04:29:02;9.82;;;1.85;;
38238;SDS011;24035;48.900;9.188;2023-02-28T04:31:29;10.18;;;2.15;;
38238;SDS011;24035;48.900;9.188;2023-02-28T04:33:55;4.40;;;1.73;;
38238;SDS011;24035;48.900;9.188;2023-02-28T04:36:21;3.72;;;1.50;;
38238;SDS011;24035;48.900;9.188;2023-02-28T04:38:48;7.03;;;1.92;;
38238;SDS011;24035;48.900;9.188;2023-02-28T04:41:14;7.25;;;1.98;;
38238;SDS011;24035;48.900;9.188;2023-02-28T04:43:40;5.15;;;1.98;;
38238;SDS011;24035;48.900;9.188;2023-02-28T04:46:06;4.90;;;2.20;;
38238;SDS011;24035;48.900;9.188;2023-02-28T04:48:33;6.85;;;2.08;;
38238;SDS011;24035;48.900;9.188;2023-02-28T04:51:01;4.50;;;1.88;;
38238;SDS011;24035;48.900;9.188;2023-02-28T04:56:00;4.03;;;1.70;;
38238;SDS011;24035;48.900;9.188;2023-02-28T04:58:26;5.45;;;2.20;;
38238;SDS011;24035;48.900;9.188;2023-02-28T05:00:53;4.40;;;2.05;;
38238;SDS011;24035;48.900;9.188;2023-02-28T05:03:20;5.45;;;2.05;;
38238;SDS011;24035;48.900;9.188;2023-02-28T05:05:47;4.65;;;1.83;;
38238;SDS011;24035;48.900;9.188;2023-02-28T05:08:12;5.47;;;1.83;;
38238;SDS011;24035;48.900;9.188;2023-02-28T05:10:38;5.95;;;2.10;;
38238;SDS011;24035;48.900;9.188;2023-02-28T05:13:04;5.50;;;1.88;;
38238;SDS011;24035;48.900;9.188;2023-02-28T05:15:30;6.22;;;1.90;;
38238;SDS011;24035;48.900;9.188;2023-02-28T05:17:56;4.47;;;1.83;;
38238;SDS011;24035;48.900;9.188;2023-02-28T05:20:21;7.10;;;2.17;;
38238;SDS011;24035;48.900;9.188;2023-02-28T05:22:47;4.70;;;1.67;;
38238;SDS011;24035;48.900;9.188;2023-02-28T05:25:17;8.20;;;2.75;;
38238;SDS011;24035;48.900;9.188;2023-02-28T05:27:44;5.32;;;2.05;;
38238;SDS011;24035;48.900;9.188;2023-02-28T05:30:10;5.28;;;2.05;;
38238;SDS011;24035;48.900;9.188;2023-02-28T05:32:39;5.35;;;1.80;;
38238;SDS011;24035;48.900;9.188;2023-02-28T05:35:12;5.15;;;2.20;;
38238;SDS011;24035;48.900;9.188;2023-02-28T05:37:38;5.18;;;1.98;;
38238;SDS011;24035;48.900;9.188;2023-02-28T05:40:05;6.97;;;2.25;;
38238;SDS011;24035;48.900;9.188;2023-02-28T05:42:32;5.72;;;2.05;;
38238;SDS011;24035;48.900;9.188;2023-02-28T05:44:58;5.18;;;2.10;;
38238;SDS011;24035;48.900;9.188;2023-02-28T05:47:24;5.15;;;2.00;;
38238;SDS011;24035;48.900;9.188;2023-02-28T05:49:49;4.20;;;1.88;;
38238;SDS011;24035;48.900;9.188;2023-02-28T05:52:15;7.38;;;2.30;;
38238;SDS011;24035;48.900;9.188;2023-02-28T05:54:42;5.03;;;2.17;;
38238;SDS011;24035;48.900;9.188;2023-02-28T05:57:08;5.68;;;2.42;;
38238;SDS011;24035;48.900;9.188;2023-02-28T05:59:34;5.22;;;2.22;;
38238;SDS011;24035;48.900;9.188;2023-02-28T06:01:59;4.65;;;1.88;;
38238;SDS011;24035;48.900;9.188;2023-02-28T06:04:25;5.95;;;2.25;;
38238;SDS011;24035;48.900;9.188;2023-02-28T06:06:50;5.65;;;1.77;;
38238;SDS011;24035;48.900;9.188;2023-02-28T06:09:17;5.25;;;2.25;;
38238;SDS011;24035;48.900;9.188;2023-02-28T06:11:44;6.55;;;2.45;;
38238;SDS011;24035;48.900;9.188;2023-02-28T06:14:14;5.05;;;2.25;;
38238;SDS011;24035;48.900;9.188;2023-02-28T06:16:41;6.20;;;2.10;;
38238;SDS011;24035;48.900;9.188;2023-02-28T06:19:08;5.70;;;2.35;;
38238;SDS011;24035;48.900;9.188;2023-02-28T06:21:34;5.05;;;2.38;;
38238;SDS011;24035;48.900;9.188;2023-02-28T06:24:00;4.57;;;1.98;;
38238;SDS011;24035;48.900;9.188;2023-02-28T06:26:26;4.82;;;2.20;;
38238;SDS011;24035;48.900;9.188;2023-02-28T06:28:52;5.50;;;2.28;;
38238;SDS011;24035;48.900;9.188;2023-02-28T06:31:18;5.47;;;2.45;;
38238;SDS011;24035;48.900;9.188;2023-02-28T06:33:44;6.30;;;2.72;;
38238;SDS011;24035;48.900;9.188;2023-02-28T06:36:11;5.03;;;1.92;;
38238;SDS011;24035;48.900;9.188;2023-02-28T06:38:38;6.13;;;2.58;;
38238;SDS011;24035;48.900;9.188;2023-02-28T06:41:05;4.90;;;2.30;;
38238;SDS011;24035;48.900;9.188;2023-02-28T06:43:32;5.00;;;1.73;;
38238;SDS011;24035;48.900;9.188;2023-02-28T06:46:01;6.97;;;3.03;;
38238;SDS011;24035;48.900;9.188;2023-02-28T06:48:29;6.00;;;2.38;;
38238;SDS011;24035;48.900;9.188;2023-02-28T06:51:27;6.18;;;2.53;;
38238;SDS011;24035;48.900;9.188;2023-02-28T06:53:47;7.90;;;2.20;;
38238;SDS011;24035;48.900;9.188;2023-02-28T06:56:14;6.80;;;2.53;;
38238;SDS011;24035;48.900;9.188;2023-02-28T06:58:40;5.13;;;2.33;;
38238;SDS011;24035;48.900;9.188;2023-02-28T07:01:07;4.35;;;2.00;;
38238;SDS011;24035;48.900;9.188;2023-02-28T07:03:34;7.68;;;2.30;;
38238;SDS011;24035;48.900;9.188;2023-02-28T07:06:01;6.95;;;2.05;;
38238;SDS011;24035;48.900;9.188;2023-02-28T07:08:27;8.15;;;2.83;;
38238;SDS011;24035;48.900;9.188;2023-02-28T07:10:54;6.60;;;2.75;;
38238;SDS011;24035;48.900;9.188;2023-02-28T07:13:21;5.85;;;2.60;;
38238;SDS011;24035;48.900;9.188;2023-02-28T07:15:56;5.60;;;2.20;;
38238;SDS011;24035;48.900;9.188;2023-02-28T07:18:24;7.38;;;2.30;;
38238;SDS011;24035;48.900;9.188;2023-02-28T07:20:50;6.70;;;2.47;;
38238;SDS011;24035;48.900;9.188;2023-02-28T07:23:15;7.40;;;2.85;;
38238;SDS011;24035;48.900;9.188;2023-02-28T07:25:41;9.63;;;3.03;;
38238;SDS011;24035;48.900;9.188;2023-02-28T07:28:07;6.22;;;2.45;;
38238;SDS011;24035;48.900;9.188;2023-02-28T07:30:33;6.90;;;2.63;;
38238;SDS011;24035;48.900;9.188;2023-02-28T07:32:58;8.88;;;3.25;;
38238;SDS011;24035;48.900;9.188;2023-02-28T07:35:24;6.70;;;2.40;;
38238;SDS011;24035;48.900;9.188;2023-02-28T07:37:50;7.47;;;2.65;;
38238;SDS011;24035;48.900;9.188;2023-02-28T07:40:15;6.60;;;2.70;;
38238;SDS011;24035;48.900;9.188;2023-02-28T07:42:43;4.60;;;2.00;;
38238;SDS011;24035;48.900;9.188;2023-02-28T07:45:08;6.68;;;2.63;;
38238;SDS011;24035;48.900;9.188;2023-02-28T07:47:40;6.55;;;2.42;;
38238;SDS011;24035;48.900;9.188;2023-02-28T07:50:07;4.55;;;2.22;;
38238;SDS011;24035;48.900;9.188;2023-02-28T07:52:39;6.68;;;2.72;;
38238;SDS011;24035;48.900;9.188;2023-02-28T07:55:06;7.50;;;2.95;;
38238;SDS011;24035;48.900;9.188;2023-02-28T07:57:34;9.05;;;2.80;;
38238;SDS011;24035;48.900;9.188;2023-02-28T07:59:59;12.60;;;3.20;;
38238;SDS011;24035;48.900;9.188;2023-02-28T08:02:25;5.22;;;2.53;;
38238;SDS011;24035;48.900;9.188;2023-02-28T08:04:51;8.38;;;2.92;;
38238;SDS011;24035;48.900;9.188;2023-02-28T08:07:17;6.05;;;2.70;;
38238;SDS011;24035;48.900;9.188;2023-02-28T08:09:43;5.85;;;2.45;;
38238;SDS011;24035;48.900;9.188;2023-02-28T08:12:09;5.57;;;2.67;;
38238;SDS011;24035;48.900;9.188;2023-02-28T08:14:35;8.00;;;2.97;;
38238;SDS011;24035;48.900;9.188;2023-02-28T08:17:01;5.18;;;2.67;;
38238;SDS011;24035;48.900;9.188;2023-02-28T08:19:27;7.57;;;2.67;;
38238;SDS011;24035;48.900;9.188;2023-02-28T08:21:53;6.03;;;2.47;;
38238;SDS011;24035;48.900;9.188;2023-02-28T08:24:19;4.97;;;2.28;;
38238;SDS011;24035;48.900;9.188;2023-02-28T08:26:45;8.73;;;3.35;;
38238;SDS011;24035;48.900;9.188;2023-02-28T08:29:10;7.45;;;2.80;;
38238;SDS011;24035;48.900;9.188;2023-02-28T08:31:36;6.78;;;2.75;;
38238;SDS011;24035;48.900;9.188;2023-02-28T08:34:20;9.15;;;3.70;;
38238;SDS011;24035;48.900;9.188;2023-02-28T08:36:45;7.60;;;2.97;;
38238;SDS011;24035;48.900;9.188;2023-02-28T08:39:12;6.65;;;3.30;;
38238;SDS011;24035;48.900;9.188;2023-02-28T08:41:37;9.05;;;3.17;;
38238;SDS011;24035;48.900;9.188;2023-02-28T08:44:03;7.82;;;3.10;;
38238;SDS011;24035;48.900;9.188;2023-02-28T08:46:29;8.02;;;3.20;;
38238;SDS011;24035;48.900;9.188;2023-02-28T08:48:55;5.80;;;2.90;;
38238;SDS011;24035;48.900;9.188;2023-02-28T08:51:25;10.82;;;4.28;;
38238;SDS011;24035;48.900;9.188;2023-02-28T08:53:55;6.68;;;2.80;;
38238;SDS011;24035;48.900;9.188;2023-02-28T08:56:24;7.10;;;3.08;;
38238;SDS011;24035;48.900;9.188;2023-02-28T08:58:51;8.68;;;3.30;;
38238;SDS011;24035;48.900;9.188;2023-02-28T09:01:27;6.82;;;3.08;;
38238;SDS011;24035;48.900;9.188;2023-02-28T09:03:53;6.93;;;3.38;;
38238;SDS011;24035;48.900;9.188;2023-02-28T09:06:21;6.05;;;2.83;;
38238;SDS011;24035;48.900;9.188;2023-02-28T09:08:48;8.55;;;3.75;;
38238;SDS011;24035;48.900;9.188;2023-02-28T09:11:15;6.57;;;2.92;;
38238;SDS011;24035;48.900;9.188;2023-02-28T09:13:41;6.93;;;3.20;;
38238;SDS011;24035;48.900;9.188;2023-02-28T09:16:08;8.15;;;3.70;;
38238;SDS011;24035;48.900;9.188;2023-02-28T09:18:38;9.88;;;3.28;;
38238;SDS011;24035;48.900;9.188;2023-02-28T09:21:05;8.90;;;4.03;;
38238;SDS011;24035;48.900;9.188;2023-02-28T09:23:35;7.53;;;3.55;;
38238;SDS011;24035;48.900;9.188;2023-02-28T09:26:03;10.05;;;3.55;;
38238;SDS011;24035;48.900;9.188;2023-02-28T09:28:29;8.57;;;3.03;;
38238;SDS011;24035;48.900;9.188;2023-02-28T09:30:55;8.10;;;3.67;;
38238;SDS011;24035;48.900;9.188;2023-02-28T09:33:23;9.38;;;3.17;;
38238;SDS011;24035;48.900;9.188;2023-02-28T09:35:48;7.53;;;3.17;;
38238;SDS011;24035;48.900;9.188;2023-02-28T09:38:15;7.93;;;3.45;;
38238;SDS011;24035;48.900;9.188;2023-02-28T09:40:46;7.25;;;3.33;;
38238;SDS011;24035;48.900;9.188;2023-02-28T09:43:12;6.63;;;2.97;;
38238;SDS011;24035;48.900;9.188;2023-02-28T09:45:41;6.85;;;3.38;;
38238;SDS011;24035;48.900;9.188;2023-02-28T09:48:18;7.55;;;3.38;;
38238;SDS011;24035;48.900;9.188;2023-02-28T09:50:50;7.18;;;3.47;;
38238;SDS011;24035;48.900;9.188;2023-02-28T09:55:59;6.80;;;3.47;;
38238;SDS011;24035;48.900;9.188;2023-02-28T09:58:44;10.00;;;4.03;;
38238;SDS011;24035;48.900;9.188;2023-02-28T10:01:21;7.28;;;3.03;;
38238;SDS011;24035;48.900;9.188;2023-02-28T10:06:28;6.95;;;3.40;;
38238;SDS011;24035;48.900;9.188;2023-02-28T10:11:47;7.75;;;3.42;;
38238;SDS011;24035;48.900;9.188;2023-02-28T10:14:16;8.00;;;3.42;;
38238;SDS011;24035;48.900;9.188;2023-02-28T10:16:47;8.93;;;3.83;;
38238;SDS011;24035;48.900;9.188;2023-02-28T10:19:29;7.20;;;2.90;;
38238;SDS011;24035;48.900;9.188;2023-02-28T10:22:13;6.78;;;3.13;;
38238;SDS011;24035;48.900;9.188;2023-02-28T10:24:45;7.45;;;3.35;;
38238;SDS011;24035;48.900;9.188;2023-02-28T10:29:44;7.28;;;3.45;;
38238;SDS011;24035;48.900;9.188;2023-02-28T10:32:15;6.10;;;3.20;;
38238;SDS011;24035;48.900;9.188;2023-02-28T10:34:43;8.55;;;3.20;;
38238;SDS011;24035;48.900;9.188;2023-02-28T10:37:09;7.63;;;2.85;;
38238;SDS011;24035;48.900;9.188;2023-02-28T10:39:40;9.43;;;3.33;;
38238;SDS011;24035;48.900;9.188;2023-02-28T10:42:27;8.20;;;3.58;;
38238;SDS011;24035;48.900;9.188;2023-02-28T10:45:13;7.18;;;3.10;;
38238;SDS011;24035;48.900;9.188;2023-02-28T10:47:55;7.10;;;3.30;;
38238;SDS011;24035;48.900;9.188;2023-02-28T10:50:33;7.75;;;3.38;;
38238;SDS011;24035;48.900;9.188;2023-02-28T10:56:13;7.93;;;3.25;;
38238;SDS011;24035;48.900;9.188;2023-02-28T10:58:45;7.00;;;3.28;;
38238;SDS011;24035;48.900;9.188;2023-02-28T11:03:45;8.57;;;3.78;;
38238;SDS011;24035;48.900;9.188;2023-02-28T11:06:15;6.80;;;3.15;;
38238;SDS011;24035;48.900;9.188;2023-02-28T11:08:47;7.80;;;3.00;;
38238;SDS011;24035;48.900;9.188;2023-02-28T11:11:13;7.05;;;3.22;;
38238;SDS011;24035;48.900;9.188;2023-02-28T11:13:42;7.22;;;3.30;;
38238;SDS011;24035;48.900;9.188;2023-02-28T11:16:10;7.18;;;3.13;;
38238;SDS011;24035;48.900;9.188;2023-02-28T11:21:06;8.35;;;3.40;;
38238;SDS011;24035;48.900;9.188;2023-02-28T11:23:33;6.72;;;3.53;;
38238;SDS011;24035;48.900;9.188;2023-02-28T11:26:02;7.10;;;3.70;;
38238;SDS011;24035;48.900;9.188;2023-02-28T11:28:39;6.37;;;3.13;;
38238;SDS011;24035;48.900;9.188;2023-02-28T11:33:41;8.80;;;3.10;;
38238;SDS011;24035;48.900;9.188;2023-02-28T11:38:41;7.40;;;3.28;;
38238;SDS011;24035;48.900;9.188;2023-02-28T11:46:52;7.60;;;2.65;;
38238;SDS011;24035;48.900;9.188;2023-02-28T11:57:35;7.20;;;3.78;;
38238;SDS011;24035;48.900;9.188;2023-02-28T12:03:15;10.55;;;3.42;;
38238;SDS011;24035;48.900;9.188;2023-02-28T12:25:18;6.13;;;2.90;;
38238;SDS011;24035;48.900;9.188;2023-02-28T12:28:07;7.15;;;2.78;;
38238;SDS011;24035;48.900;9.188;2023-02-28T12:30:36;7.18;;;3.15;;
38238;SDS011;24035;48.900;9.188;2023-02-28T12:33:09;6.40;;;3.22;;
38238;SDS011;24035;48.900;9.188;2023-02-28T12:35:58;7.55;;;3.08;;
38238;SDS011;24035;48.900;9.188;2023-02-28T12:43:31;7.97;;;3.15;;
38238;SDS011;24035;48.900;9.188;2023-02-28T12:45:59;6.88;;;3.35;;
38238;SDS011;24035;48.900;9.188;2023-02-28T12:51:04;6.07;;;3.40;;
38238;SDS011;24035;48.900;9.188;2023-02-28T12:53:35;7.90;;;3.28;;
38238;SDS011;24035;48.900;9.188;2023-02-28T13:01:15;5.97;;;3.05;;
38238;SDS011;24035;48.900;9.188;2023-02-28T13:09:21;6.30;;;3.05;;
38238;SDS011;24035;48.900;9.188;2023-02-28T13:11:53;6.45;;;3.25;;
38238;SDS011;24035;48.900;9.188;2023-02-28T13:14:25;5.40;;;3.15;;
38238;SDS011;24035;48.900;9.188;2023-02-28T13:19:33;8.15;;;2.90;;
38238;SDS011;24035;48.900;9.188;2023-02-28T13:22:02;6.70;;;3.38;;
38238;SDS011;24035;48.900;9.188;2023-02-28T13:24:39;7.32;;;2.83;;
38238;SDS011;24035;48.900;9.188;2023-02-28T13:27:11;7.32;;;2.63;;
38238;SDS011;24035;48.900;9.188;2023-02-28T13:29:50;10.70;;;3.28;;
38238;SDS011;24035;48.900;9.188;2023-02-28T13:32:28;9.35;;;3.53;;
38238;SDS011;24035;48.900;9.188;2023-02-28T13:39:50;6.63;;;3.25;;
38238;SDS011;24035;48.900;9.188;2023-02-28T13:58:36;6.50;;;3.35;;
38238;SDS011;24035;48.900;9.188;2023-02-28T14:01:30;10.43;;;3.40;;
38238;SDS011;24035;48.900;9.188;2023-02-28T14:07:08;8.18;;;3.67;;
38238;SDS011;24035;48.900;9.188;2023-02-28T14:09:41;6.60;;;3.37;;
38238;SDS011;24035;48.900;9.188;2023-02-28T14:20:45;6.50;;;2.88;;
38238;SDS011;24035;48.900;9.188;2023-02-28T14:23:22;7.45;;;3.08;;
38238;SDS011;24035;48.900;9.188;2023-02-28T14:26:02;9.52;;;3.47;;
38238;SDS011;24035;48.900;9.188;2023-02-28T14:34:40;8.25;;;3.95;;
38238;SDS011;24035;48.900;9.188;2023-02-28T14:37:46;7.18;;;3.53;;
38238;SDS011;24035;48.900;9.188;2023-02-28T14:40:33;8.95;;;3.85;;
38238;SDS011;24035;48.900;9.188;2023-02-28T14:43:27;8.32;;;3.63;;
38238;SDS011;24035;48.900;9.188;2023-02-28T14:46:13;8.00;;;3.60;;
38238;SDS011;24035;48.900;9.188;2023-02-28T14:49:00;8.25;;;3.15;;
38238;SDS011;24035;48.900;9.188;2023-02-28T14:51:49;10.35;;;3.42;;
38238;SDS011;24035;48.900;9.188;2023-02-28T14:54:51;6.65;;;3.22;;
38238;SDS011;24035;48.900;9.188;2023-02-28T14:57:53;8.07;;;3.00;;
38238;SDS011;24035;48.900;9.188;2023-02-28T15:00:47;5.85;;;3.10;;
38238;SDS011;24035;48.900;9.188;2023-02-28T15:03:36;8.13;;;3.05;;
38238;SDS011;24035;48.900;9.188;2023-02-28T15:06:24;8.15;;;3.35;;
38238;SDS011;24035;48.900;9.188;2023-02-28T15:09:17;5.97;;;2.95;;
38238;SDS011;24035;48.900;9.188;2023-02-28T15:12:04;7.00;;;3.30;;
38238;SDS011;24035;48.900;9.188;2023-02-28T15:14:50;8.77;;;3.67;;
38238;SDS011;24035;48.900;9.188;2023-02-28T15:17:36;7.63;;;3.58;;
38238;SDS011;24035;48.900;9.188;2023-02-28T15:20:22;7.28;;;3.60;;
38238;SDS011;24035;48.900;9.188;2023-02-28T15:23:09;7.65;;;3.60;;
38238;SDS011;24035;48.900;9.188;2023-02-28T15:25:56;7.50;;;3.22;;
38238;SDS011;24035;48.900;9.188;2023-02-28T15:28:43;7.85;;;3.38;;
38238;SDS011;24035;48.900;9.188;2023-02-28T15:31:40;7.60;;;3.75;;
38238;SDS011;24035;48.900;9.188;2023-02-28T15:34:39;8.25;;;3.35;;
38238;SDS011;24035;48.900;9.188;2023-02-28T15:40:29;6.60;;;3.38;;
38238;SDS011;24035;48.900;9.188;2023-02-28T15:43:18;8.88;;;3.33;;
38238;SDS011;24035;48.900;9.188;2023-02-28T15:46:16;8.82;;;3.45;;
38238;SDS011;24035;48.900;9.188;2023-02-28T15:49:04;7.85;;;3.65;;
38238;SDS011;24035;48.900;9.188;2023-02-28T15:52:02;7.00;;;3.47;;
38238;SDS011;24035;48.900;9.188;2023-02-28T15:54:48;7.57;;;3.60;;
38238;SDS011;24035;48.900;9.188;2023-02-28T15:57:34;10.57;;;3.45;;
38238;SDS011;24035;48.900;9.188;2023-02-28T16:00:22;7.05;;;3.65;;
38238;SDS011;24035;48.900;9.188;2023-02-28T16:03:26;6.80;;;3.70;;
38238;SDS011;24035;48.900;9.188;2023-02-28T16:06:32;8.02;;;3.80;;
38238;SDS011;24035;48.900;9.188;2023-02-28T16:09:41;10.07;;;3.95;;
38238;SDS011;24035;48.900;9.188;2023-02-28T16:12:28;8.48;;;3.95;;
38238;SDS011;24035;48.900;9.188;2023-02-28T16:15:20;7.65;;;3.30;;
38238;SDS011;24035;48.900;9.188;2023-02-28T16:18:08;7.47;;;3.50;;
38238;SDS011;24035;48.900;9.188;2023-02-28T16:20:56;7.20;;;3.75;;
38238;SDS011;24035;48.900;9.188;2023-02-28T16:23:42;9.65;;;3.70;;
38238;SDS011;24035;48.900;9.188;2023-02-28T16:26:28;10.00;;;4.00;;
38238;SDS011;24035;48.900;9.188;2023-02-28T16:29:17;6.13;;;3.53;;
38238;SDS011;24035;48.900;9.188;2023-02-28T16:32:10;8.13;;;3.40;;
38238;SDS011;24035;48.900;9.188;2023-02-28T16:35:00;9.80;;;4.05;;
38238;SDS011;24035;48.900;9.188;2023-02-28T16:37:46;7.65;;;3.58;;
38238;SDS011;24035;48.900;9.188;2023-02-28T16:40:33;8.73;;;3.85;;
38238;SDS011;24035;48.900;9.188;2023-02-28T16:43:22;10.70;;;4.68;;
38238;SDS011;24035;48.900;9.188;2023-02-28T16:46:10;7.78;;;3.67;;
38238;SDS011;24035;48.900;9.188;2023-02-28T16:48:57;9.43;;;3.72;;
38238;SDS011;24035;48.900;9.188;2023-02-28T16:51:43;9.60;;;4.13;;
38238;SDS011;24035;48.900;9.188;2023-02-28T16:54:29;9.00;;;4.68;;
38238;SDS011;24035;48.900;9.188;2023-02-28T16:57:20;9.43;;;3.83;;
38238;SDS011;24035;48.900;9.188;2023-02-28T17:00:08;9.32;;;4.60;;
38238;SDS011;24035;48.900;9.188;2023-02-28T17:02:58;9.15;;;4.43;;
38238;SDS011;24035;48.900;9.188;2023-02-28T17:05:44;7.93;;;3.85;;
38238;SDS011;24035;48.900;9.188;2023-02-28T17:08:31;8.95;;;4.10;;
38238;SDS011;24035;48.900;9.188;2023-02-28T17:11:17;8.07;;;3.72;;
38238;SDS011;24035;48.900;9.188;2023-02-28T17:14:04;8.07;;;4.40;;
38238;SDS011;24035;48.900;9.188;2023-02-28T17:16:50;7.25;;;3.60;;
38238;SDS011;24035;48.900;9.188;2023-02-28T17:19:36;7.68;;;3.67;;
38238;SDS011;24035;48.900;9.188;2023-02-28T17:22:23;8.23;;;4.07;;
38238;SDS011;24035;48.900;9.188;2023-02-28T17:25:11;10.02;;;4.60;;
38238;SDS011;24035;48.900;9.188;2023-02-28T17:27:57;10.05;;;4.88;;
38238;SDS011;24035;48.900;9.188;2023-02-28T17:30:42;9.63;;;4.28;;
38238;SDS011;24035;48.900;9.188;2023-02-28T17:33:32;7.70;;;3.90;;
38238;SDS011;24035;48.900;9.188;2023-02-28T17:36:22;9.63;;;3.67;;
38238;SDS011;24035;48.900;9.188;2023-02-28T17:39:12;9.68;;;4.22;;
38238;SDS011;24035;48.900;9.188;2023-02-28T17:42:07;9.73;;;4.25;;
38238;SDS011;24035;48.900;9.188;2023-02-28T17:44:53;11.18;;;4.22;;
38238;SDS011;24035;48.900;9.188;2023-02-28T17:47:39;9.77;;;4.32;;
38238;SDS011;24035;48.900;9.188;2023-02-28T17:50:26;8.70;;;3.97;;
38238;SDS011;24035;48.900;9.188;2023-02-28T17:53:12;7.88;;;4.00;;
38238;SDS011;24035;48.900;9.188;2023-02-28T17:55:58;11.80;;;4.65;;
38238;SDS011;24035;48.900;9.188;2023-02-28T17:58:44;10.10;;;4.60;;
38238;SDS011;24035;48.900;9.188;2023-02-28T18:01:30;9.77;;;4.53;;
38238;SDS011;24035;48.900;9.188;2023-02-28T18:04:16;12.68;;;4.97;;
38238;SDS011;24035;48.900;9.188;2023-02-28T18:07:02;9.65;;;5.00;;
38238;SDS011;24035;48.900;9.188;2023-02-28T18:09:48;12.98;;;4.65;;
38238;SDS011;24035;48.900;9.188;2023-02-28T18:12:34;10.55;;;4.80;;
38238;SDS011;24035;48.900;9.188;2023-02-28T18:15:21;12.18;;;5.32;;